Catàleg de serveis del Meteocat
Campanya meteocatpedra

Dades de l'estació automàtica Canyelles

?
?
Resum diari 23:00 TU
Dades diàries de l'estació meteorològica
Temperatura mitjana 24.2 °C
Temperatura màxima 29.4 °C 13:15 TU
Temperatura mínima 19.0 °C 3:22 TU
Humitat relativa mitjana 68%
Precipitació acumulada 0.0 mm
Ratxa màxima del vent (10 m) 26.6 km/h - 29º 7:44 TU
Irradiació solar global 26.5 MJ/m2

El tram horari està expressat en Temps Universal (TU). Cal sumar una hora en horari d'hivern i dues en horari d'estiu per passar a l'hora oficial.

Canyelles

Metadades estació meteorol´gica
Municipi Canyelles
Comarca Garraf
Altitud 148 m
Data alta 16.07.2013
Estat actual Operativa
Dades de període
Període
TU
TM
°C
TX
°C
TN
°C
HRM
%
PPT
mm
VVM (10 m)
km/h
DVM (10 m)
graus
VVX (10 m)
km/h
RS
W/m2
00:00 - 00:30 20.2 20.5 20.0 88 0.0 1.8 16 5.0 0
00:30 - 01:00 20.4 20.4 20.2 86 0.0 1.8 210 4.3 0
01:00 - 01:30 20.1 20.3 19.8 88 0.0 0.7 344 4.0 0
01:30 - 02:00 20.1 20.2 20.0 88 0.0 1.4 224 4.3 0
02:00 - 02:30 19.8 20.0 19.5 90 0.0 1.1 293 5.0 0
02:30 - 03:00 19.4 19.5 19.2 92 0.0 2.5 58 7.6 0
03:00 - 03:30 19.1 19.4 19.0 94 0.0 2.2 1 9.7 0
03:30 - 04:00 19.7 19.9 19.5 95 0.0 5.0 9 10.8 0
04:00 - 04:30 19.6 20.0 19.4 92 0.0 2.5 15 7.9 0
04:30 - 05:00 19.6 20.0 19.4 80 0.0 4.3 356 11.5 7
05:00 - 05:30 20.5 21.0 20.0 68 0.0 3.6 16 8.6 51
05:30 - 06:00 21.5 22.2 21.1 65 0.0 2.5 63 6.8 105
06:00 - 06:30 22.9 23.3 22.3 56 0.0 8.3 29 18.7 192
06:30 - 07:00 23.0 23.8 22.3 55 0.0 9.7 15 20.2 233
07:00 - 07:30 24.3 24.7 23.7 50 0.0 11.2 18 20.5 417
07:30 - 08:00 25.5 26.4 24.8 47 0.0 11.2 27 26.6 518
08:00 - 08:30 26.2 26.5 25.5 46 0.0 11.5 5 26.6 591
08:30 - 09:00 26.8 27.6 26.2 48 0.0 11.5 353 25.2 670
09:00 - 09:30 27.8 28.1 27.6 49 0.0 9.7 352 20.9 736
09:30 - 10:00 28.5 29.1 28.0 50 0.0 6.5 2 14.8 592
10:00 - 10:30 28.0 28.8 27.4 54 0.0 9.0 167 21.6 495
10:30 - 11:00 27.8 28.4 27.2 52 0.0 10.8 155 19.8 479
11:00 - 11:30 28.5 29.1 28.0 56 0.0 11.9 159 25.2 973
11:30 - 12:00 28.4 28.8 28.0 57 0.0 9.7 170 24.5 960
12:00 - 12:30 28.4 29.1 27.7 53 0.0 10.8 142 22.7 946
12:30 - 13:00 28.5 29.2 28.2 52 0.0 9.0 162 23.0 930
13:00 - 13:30 28.8 29.4 28.4 54 0.0 8.6 167 20.9 901
13:30 - 14:00 28.5 29.2 28.1 55 0.0 11.5 182 23.0 863
14:00 - 14:30 28.6 29.3 28.2 52 0.0 9.4 175 20.2 802
14:30 - 15:00 28.2 28.5 27.8 54 0.0 9.4 173 20.2 733
15:00 - 15:30 27.8 28.5 27.6 58 0.0 10.1 161 21.2 659
15:30 - 16:00 27.6 28.4 27.2 60 0.0 9.7 148 24.1 575
16:00 - 16:30 26.9 27.1 26.5 64 0.0 9.7 140 23.4 498
16:30 - 17:00 26.5 26.8 26.3 62 0.0 9.7 146 20.2 405
17:00 - 17:30 25.7 26.3 25.5 64 0.0 10.1 155 22.0 259
17:30 - 18:00 25.2 25.5 24.9 65 0.0 10.4 151 22.7 60
18:00 - 18:30 24.7 25.0 24.3 68 0.0 10.4 147 23.8 83
18:30 - 19:00 24.2 24.3 24.0 69 0.0 7.9 153 15.5 25
19:00 - 19:30 23.7 24.0 23.5 72 0.0 6.1 151 13.3 6
19:30 - 20:00 23.4 23.5 23.3 75 0.0 4.7 154 10.8 0
20:00 - 20:30 23.1 23.3 22.9 76 0.0 2.5 179 7.9 0
20:30 - 21:00 22.6 22.9 22.4 78 0.0 1.4 214 4.7 0
21:00 - 21:30 22.2 22.3 22.0 80 0.0 2.5 243 4.7 0
21:30 - 22:00 21.8 22.0 21.2 81 0.0 1.8 268 4.7 0
22:00 - 22:30 20.9 21.2 20.7 85 0.0 0.4 263 1.8 0
22:30 - 23:00 20.3 20.6 20.1 87 0.0 0.0 262 1.8 0
23:00 - 23:30 20.0 20.1 19.8 87 0.0 1.1 243 2.9 0

Les dades en taronja només han passat un control de qualitat automàtic. Resta pendent la seva validació definitiva.